createdAt,value
2022-12-31T00:06:59.944Z,5.90
2022-12-31T00:22:17.204Z,6.04
2022-12-31T00:37:19.954Z,6.28
2022-12-31T00:52:22.466Z,6.57
2022-12-31T01:07:25.264Z,6.71
2022-12-31T01:22:27.937Z,6.83
2022-12-31T01:37:30.362Z,6.95
2022-12-31T01:52:40.828Z,7.09
2022-12-31T02:07:44.798Z,7.23
2022-12-31T02:23:29.084Z,7.41
2022-12-31T02:38:41.351Z,7.57
2022-12-31T02:53:57.905Z,7.65
2022-12-31T03:09:14.219Z,7.73
2022-12-31T03:24:35.283Z,7.84
2022-12-31T03:39:37.806Z,7.93
2022-12-31T03:54:54.830Z,8.03
2022-12-31T04:09:57.816Z,8.13
2022-12-31T04:25:15.180Z,8.11
2022-12-31T04:40:17.793Z,8.14
2022-12-31T04:55:20.120Z,8.07
2022-12-31T05:10:22.946Z,7.96
2022-12-31T05:25:25.597Z,8.01
2022-12-31T05:40:28.903Z,7.92
2022-12-31T05:55:31.362Z,8.06
2022-12-31T06:10:33.978Z,8.06
2022-12-31T06:25:39.594Z,8.24
2022-12-31T06:40:42.335Z,8.32
2022-12-31T06:55:45.223Z,8.40
2022-12-31T07:11:13.638Z,8.44
2022-12-31T07:26:43.981Z,8.52
2022-12-31T07:42:02.611Z,8.55
2022-12-31T07:57:05.654Z,8.59
2022-12-31T08:12:09.151Z,8.78
2022-12-31T08:28:14.024Z,9.05
2022-12-31T08:43:41.297Z,9.24
2022-12-31T08:59:12.130Z,9.47
2022-12-31T09:14:35.187Z,9.89
2022-12-31T09:30:07.157Z,10.29
2022-12-31T09:46:12.450Z,10.69
2022-12-31T10:01:56.157Z,10.96
2022-12-31T10:17:53.606Z,11.13
2022-12-31T10:33:33.264Z,11.63
2022-12-31T10:49:39.329Z,12.26
2022-12-31T11:05:11.356Z,13.02
2022-12-31T11:20:59.817Z,13.82
2022-12-31T11:36:40.358Z,14.13
2022-12-31T11:52:11.667Z,14.48
2022-12-31T12:07:16.157Z,14.52
2022-12-31T12:22:25.325Z,14.64
2022-12-31T12:37:34.827Z,14.83
2022-12-31T12:53:17.834Z,15.01
2022-12-31T13:08:59.906Z,14.81
2022-12-31T13:24:31.349Z,14.79
2022-12-31T13:40:01.392Z,14.97
2022-12-31T13:55:30.333Z,15.23
2022-12-31T14:10:54.791Z,15.39
2022-12-31T14:26:06.542Z,15.46
2022-12-31T14:41:22.381Z,15.46
2022-12-31T14:56:43.216Z,15.50
2022-12-31T15:12:07.599Z,15.38
2022-12-31T15:27:38.272Z,15.37
2022-12-31T15:42:54.960Z,15.33
2022-12-31T15:58:23.287Z,15.34
2022-12-31T16:13:29.663Z,15.38
2022-12-31T16:28:51.840Z,15.32
2022-12-31T16:43:56.307Z,15.19
2022-12-31T16:59:55.953Z,15.05
2022-12-31T17:15:05.391Z,14.93
2022-12-31T17:30:36.021Z,14.89
2022-12-31T17:45:49.313Z,14.83
2022-12-31T18:00:54.031Z,14.80
2022-12-31T18:16:11.155Z,14.82
2022-12-31T18:31:27.660Z,14.78
2022-12-31T18:46:44.789Z,14.80
2022-12-31T19:02:01.939Z,14.87
2022-12-31T19:17:21.119Z,14.92
2022-12-31T19:32:23.801Z,14.84
2022-12-31T19:47:26.272Z,14.77
2022-12-31T20:02:29.236Z,14.65
2022-12-31T20:17:32.188Z,14.68
2022-12-31T20:32:36.268Z,14.77
2022-12-31T20:47:38.961Z,14.84
2022-12-31T21:02:43.515Z,14.73
2022-12-31T21:17:49.535Z,14.57
